Time;durP1;ratioP1;P1;durP2;ratioP2;P2;SDS_P1;SDS_P2;PMS_P1;PMS_P2;Temp;Humidity;BMP_temperature;BMP_pressure;BME280_temperature;BME280_humidity;BME280_pressure;Samples;Min_cycle;Max_cycle;Signal;HPM_P1;HPM_P2
2023/10/25 00:02:09;;;;;;;24.47;16.40;;;12.30;99.90;;;;;;5058371;28;20171;-64
2023/10/25 00:04:35;;;;;;;27.10;15.83;;;12.20;99.90;;;;;;5051616;28;20166;-62
2023/10/25 00:07:01;;;;;;;27.10;16.17;;;12.20;99.90;;;;;;5051789;28;20654;-63
2023/10/25 00:09:26;;;;;;;25.60;16.03;;;12.30;99.90;;;;;;5060765;28;20600;-62
2023/10/25 00:11:53;;;;;;;25.60;16.73;;;12.30;99.90;;;;;;5059864;28;20175;-63
2023/10/25 00:14:19;;;;;;;29.20;17.43;;;12.30;99.90;;;;;;5064402;28;20171;-62
2023/10/25 00:16:45;;;;;;;23.90;15.97;;;12.30;99.90;;;;;;5067213;28;20539;-61
2023/10/25 00:19:10;;;;;;;26.93;16.60;;;12.30;99.90;;;;;;5054521;28;20258;-65
2023/10/25 00:21:39;;;;;;;27.47;16.73;;;12.30;99.90;;;;;;5054398;28;20324;-64
2023/10/25 00:24:05;;;;;;;26.80;16.43;;;12.30;99.90;;;;;;5055043;28;20199;-64
2023/10/25 00:26:30;;;;;;;29.30;16.03;;;12.30;99.90;;;;;;5056967;28;20465;-64
2023/10/25 00:28:58;;;;;;;24.97;15.60;;;12.30;99.90;;;;;;5053920;28;20799;-65
2023/10/25 00:31:24;;;;;;;25.07;15.77;;;12.30;99.90;;;;;;5044004;28;20175;-64
2023/10/25 00:33:50;;;;;;;20.70;15.57;;;12.20;99.90;;;;;;5015074;28;20415;-63
2023/10/25 00:36:15;;;;;;;22.30;15.23;;;12.20;99.90;;;;;;5062410;28;20446;-64
2023/10/25 00:38:41;;;;;;;19.07;13.97;;;12.20;99.90;;;;;;5049780;28;20262;-63
2023/10/25 00:41:07;;;;;;;19.77;13.10;;;12.20;99.90;;;;;;5024366;28;20175;-65
2023/10/25 00:43:32;;;;;;;21.40;14.50;;;12.00;99.90;;;;;;5040123;28;20939;-64
2023/10/25 00:46:31;;;;;;;21.60;15.00;;;12.10;99.90;;;;;;5043451;28;20607;-63
2023/10/25 00:48:58;;;;;;;22.17;14.40;;;12.20;99.90;;;;;;5042556;28;20234;-64
2023/10/25 00:51:25;;;;;;;21.20;13.70;;;12.10;99.90;;;;;;5027534;28;20508;-63
2023/10/25 00:53:54;;;;;;;27.27;14.40;;;12.00;99.90;;;;;;5044110;28;20785;-63
2023/10/25 00:56:22;;;;;;;20.40;13.40;;;12.00;99.90;;;;;;5044656;28;20540;-63
2023/10/25 00:58:49;;;;;;;22.97;16.60;;;12.10;99.90;;;;;;5042581;28;20462;-62
2023/10/25 01:01:18;;;;;;;21.13;14.40;;;12.10;99.90;;;;;;5043765;28;20964;-62
2023/10/25 01:03:43;;;;;;;20.50;15.30;;;12.10;99.90;;;;;;5042926;28;20430;-64
2023/10/25 01:06:09;;;;;;;16.97;13.23;;;12.00;99.90;;;;;;5043401;28;20453;-62
2023/10/25 01:08:35;;;;;;;19.43;13.20;;;12.10;99.90;;;;;;5026803;28;20243;-63
2023/10/25 01:11:01;;;;;;;19.80;14.83;;;12.00;99.90;;;;;;5038037;28;20537;-59
2023/10/25 01:13:26;;;;;;;21.90;14.00;;;12.10;99.90;;;;;;5043846;28;20998;-64
2023/10/25 01:15:52;;;;;;;18.63;14.23;;;12.00;99.90;;;;;;5041731;28;20523;-62
2023/10/25 01:18:17;;;;;;;12.10;10.13;;;12.00;99.90;;;;;;5043920;28;20641;-60
2023/10/25 01:20:44;;;;;;;14.20;11.50;;;12.00;99.90;;;;;;5040778;28;20183;-62
2023/10/25 01:23:10;;;;;;;18.73;10.03;;;12.00;99.90;;;;;;5045362;28;20172;-62
2023/10/25 01:25:36;;;;;;;14.13;10.47;;;11.90;99.90;;;;;;5043671;28;20488;-61
2023/10/25 01:28:01;;;;;;;14.00;11.00;;;11.90;99.90;;;;;;5043740;28;20471;-62
2023/10/25 01:30:27;;;;;;;13.10;9.90;;;11.80;99.90;;;;;;5038959;28;20547;-63
2023/10/25 01:32:53;;;;;;;14.43;11.97;;;11.90;99.90;;;;;;5040265;28;20187;-63
2023/10/25 01:35:19;;;;;;;14.53;10.60;;;11.80;99.90;;;;;;5040611;28;20195;-65
2023/10/25 01:37:45;;;;;;;11.87;9.57;;;11.90;99.90;;;;;;5042073;28;20504;-65
2023/10/25 01:40:11;;;;;;;12.03;10.43;;;11.90;99.90;;;;;;5040585;28;20520;-60
2023/10/25 01:42:37;;;;;;;11.83;10.20;;;11.90;99.90;;;;;;5042286;28;20654;-62
2023/10/25 01:45:03;;;;;;;12.10;10.00;;;11.90;99.90;;;;;;5045949;28;20453;-63
2023/10/25 01:47:29;;;;;;;14.03;10.30;;;11.90;99.90;;;;;;5045877;28;20230;-66
2023/10/25 01:49:54;;;;;;;11.40;10.17;;;11.90;99.90;;;;;;5044845;28;20759;-62
2023/10/25 01:52:20;;;;;;;14.63;10.93;;;11.90;99.90;;;;;;5046240;28;20167;-63
2023/10/25 01:54:50;;;;;;;12.00;10.80;;;11.80;99.90;;;;;;5041884;28;20179;-60
2023/10/25 01:57:16;;;;;;;14.33;12.07;;;11.90;99.90;;;;;;5038819;28;20507;-62
2023/10/25 01:59:42;;;;;;;12.87;11.17;;;11.90;99.90;;;;;;5040530;28;20422;-63
2023/10/25 02:02:09;;;;;;;16.70;13.57;;;11.90;99.90;;;;;;5037743;28;20787;-63
2023/10/25 02:04:34;;;;;;;13.53;11.83;;;11.90;99.90;;;;;;5025726;28;20433;-63
2023/10/25 02:07:00;;;;;;;16.90;13.00;;;11.90;99.90;;;;;;5037488;28;20457;-62
2023/10/25 02:09:25;;;;;;;17.43;14.00;;;11.90;99.90;;;;;;5041336;28;20588;-64
2023/10/25 02:11:51;;;;;;;17.27;13.10;;;11.90;99.90;;;;;;5042068;28;20171;-63
2023/10/25 02:14:17;;;;;;;16.07;13.37;;;11.90;99.90;;;;;;5040381;28;20168;-63
2023/10/25 02:16:43;;;;;;;18.10;13.83;;;11.90;99.90;;;;;;5042033;28;20209;-63
2023/10/25 02:19:08;;;;;;;21.30;14.10;;;12.00;99.90;;;;;;5045661;28;20671;-60
2023/10/25 02:21:37;;;;;;;18.87;14.43;;;12.00;99.90;;;;;;5043814;28;20274;-64
2023/10/25 02:24:03;;;;;;;18.63;14.40;;;11.90;99.90;;;;;;5041385;28;20276;-64
2023/10/25 02:26:29;;;;;;;24.00;14.47;;;11.90;99.90;;;;;;5044432;28;20474;-63
2023/10/25 02:28:55;;;;;;;20.83;15.33;;;11.90;99.90;;;;;;5038469;28;20417;-63
2023/10/25 02:31:21;;;;;;;25.00;15.77;;;11.90;99.90;;;;;;5039726;28;20165;-64
2023/10/25 02:33:46;;;;;;;24.13;15.80;;;11.80;99.90;;;;;;5025577;28;20654;-64
2023/10/25 02:36:12;;;;;;;27.60;16.97;;;11.90;99.90;;;;;;5044886;28;20444;-62
2023/10/25 02:38:38;;;;;;;27.97;17.40;;;11.90;99.90;;;;;;5042799;28;20408;-65
2023/10/25 02:41:03;;;;;;;27.90;18.87;;;11.80;99.90;;;;;;5045181;28;20550;-62
2023/10/25 02:43:29;;;;;;;28.67;18.83;;;11.80;99.90;;;;;;5044758;28;20174;-63
2023/10/25 02:46:02;;;;;;;29.87;20.37;;;11.70;99.90;;;;;;5044078;28;20289;-63
2023/10/25 02:48:28;;;;;;;34.70;18.73;;;11.70;99.90;;;;;;5043067;28;20175;-64
2023/10/25 02:50:53;;;;;;;28.63;18.27;;;11.70;99.90;;;;;;5042221;28;20540;-64
2023/10/25 02:53:19;;;;;;;25.40;17.60;;;11.70;99.90;;;;;;5041956;28;20175;-64
2023/10/25 02:55:47;;;;;;;27.53;18.47;;;11.70;99.90;;;;;;5025229;28;20611;-64
2023/10/25 02:58:13;;;;;;;29.13;18.30;;;11.70;99.90;;;;;;5042707;28;20535;-65
2023/10/25 03:00:38;;;;;;;25.43;16.60;;;11.70;99.90;;;;;;5043265;28;20493;-64
2023/10/25 03:03:04;;;;;;;31.73;18.90;;;11.70;99.90;;;;;;5039505;28;20414;-65
2023/10/25 03:05:30;;;;;;;27.67;18.90;;;11.70;99.90;;;;;;5040091;28;20203;-64
2023/10/25 03:07:56;;;;;;;28.23;20.13;;;11.60;99.90;;;;;;5036638;28;20258;-64
2023/10/25 03:10:21;;;;;;;28.90;19.23;;;11.70;99.90;;;;;;5045795;28;20504;-64
2023/10/25 03:12:47;;;;;;;25.67;18.97;;;11.70;99.90;;;;;;5038883;28;20173;-64
2023/10/25 03:15:13;;;;;;;28.53;20.37;;;11.70;99.90;;;;;;5041667;28;20195;-63
2023/10/25 03:17:38;;;;;;;25.70;19.57;;;11.70;99.90;;;;;;5039295;28;20225;-60
2023/10/25 03:20:05;;;;;;;27.63;21.23;;;11.70;99.90;;;;;;5037207;28;20194;-60
2023/10/25 03:22:31;;;;;;;27.07;20.83;;;11.70;99.90;;;;;;5036798;28;20179;-58
2023/10/25 03:24:57;;;;;;;23.93;18.17;;;11.70;99.90;;;;;;5035743;28;20442;-62
2023/10/25 03:27:23;;;;;;;30.27;21.63;;;11.70;99.90;;;;;;5042949;28;20940;-63
2023/10/25 03:29:48;;;;;;;29.10;19.83;;;11.70;99.90;;;;;;5042666;28;20179;-60
2023/10/25 03:32:14;;;;;;;27.27;20.80;;;11.60;99.90;;;;;;5043946;28;20171;-61
2023/10/25 03:34:43;;;;;;;28.03;18.40;;;11.60;99.90;;;;;;5044344;28;20205;-62
2023/10/25 03:37:08;;;;;;;26.23;19.43;;;11.60;99.90;;;;;;5040847;28;20225;-61
2023/10/25 03:39:36;;;;;;;27.60;20.57;;;11.60;99.90;;;;;;5036420;28;20407;-61
2023/10/25 03:42:01;;;;;;;27.50;19.60;;;11.50;99.90;;;;;;5041936;28;20731;-61
2023/10/25 03:44:27;;;;;;;25.20;17.90;;;11.50;99.90;;;;;;5037309;28;20443;-63
2023/10/25 03:46:54;;;;;;;25.97;18.30;;;11.50;99.90;;;;;;5041433;28;20214;-62
2023/10/25 03:49:20;;;;;;;22.43;17.37;;;11.40;99.90;;;;;;5040079;28;20181;-63
2023/10/25 03:51:45;;;;;;;24.70;17.50;;;11.40;99.90;;;;;;5042657;28;20449;-65
2023/10/25 03:54:11;;;;;;;20.83;17.00;;;11.40;99.90;;;;;;5024020;28;20179;-65
2023/10/25 03:56:36;;;;;;;22.00;16.30;;;11.40;99.90;;;;;;5042579;28;20195;-64
2023/10/25 03:59:02;;;;;;;24.07;17.40;;;11.30;99.90;;;;;;5043106;28;20521;-65
2023/10/25 04:01:28;;;;;;;23.73;16.53;;;11.30;99.90;;;;;;5043723;28;20536;-64
2023/10/25 04:03:53;;;;;;;26.20;17.33;;;11.30;99.90;;;;;;5043604;28;20219;-65
2023/10/25 04:06:19;;;;;;;24.70;17.53;;;11.20;99.90;;;;;;5040248;28;20576;-64
2023/10/25 04:08:44;;;;;;;25.53;18.83;;;11.30;99.90;;;;;;5042751;28;20233;-64
2023/10/25 04:11:10;;;;;;;25.17;18.93;;;11.40;99.90;;;;;;5043588;28;20578;-63
2023/10/25 04:13:36;;;;;;;24.60;17.50;;;11.20;99.90;;;;;;5040940;28;20262;-62
2023/10/25 04:16:04;;;;;;;28.33;16.77;;;11.10;99.90;;;;;;5047324;28;20198;-61
2023/10/25 04:18:30;;;;;;;22.63;17.23;;;11.10;99.90;;;;;;5047943;28;20202;-62
2023/10/25 04:20:58;;;;;;;22.77;15.90;;;11.10;99.90;;;;;;5045328;28;20426;-63
2023/10/25 04:23:25;;;;;;;21.00;17.20;;;11.10;99.90;;;;;;5027183;28;20433;-63
2023/10/25 04:25:51;;;;;;;22.13;16.97;;;11.10;99.90;;;;;;5046699;28;20960;-63
2023/10/25 04:28:18;;;;;;;20.83;16.20;;;11.10;99.90;;;;;;5047563;28;20428;-63
2023/10/25 04:30:44;;;;;;;21.93;16.63;;;11.10;99.90;;;;;;5047116;28;20638;-60
2023/10/25 04:33:11;;;;;;;21.73;16.80;;;11.10;99.90;;;;;;5046701;28;20985;-61
2023/10/25 04:35:37;;;;;;;21.50;16.93;;;11.00;99.90;;;;;;5046793;28;20487;-64
2023/10/25 04:38:03;;;;;;;24.93;17.53;;;11.00;99.90;;;;;;5044436;28;20473;-64
2023/10/25 04:40:29;;;;;;;23.13;17.27;;;10.90;99.90;;;;;;5045981;28;20167;-64
2023/10/25 04:42:54;;;;;;;20.87;16.53;;;10.90;99.90;;;;;;5045782;28;20210;-64
2023/10/25 04:45:20;;;;;;;21.00;17.60;;;10.90;99.90;;;;;;5045974;28;20594;-64
2023/10/25 04:47:46;;;;;;;28.53;18.00;;;10.80;99.90;;;;;;5046667;28;20175;-64
2023/10/25 04:50:12;;;;;;;21.70;17.20;;;10.80;99.90;;;;;;5046384;28;20470;-64
2023/10/25 04:52:37;;;;;;;24.03;18.63;;;10.70;99.90;;;;;;5043323;28;20167;-63
2023/10/25 04:55:04;;;;;;;21.63;17.23;;;10.60;99.90;;;;;;5029927;28;21131;-63
2023/10/25 04:57:29;;;;;;;24.57;18.30;;;10.60;99.90;;;;;;5046516;28;20194;-63
2023/10/25 04:59:55;;;;;;;25.53;18.03;;;10.50;99.90;;;;;;5042576;28;20544;-64
2023/10/25 05:02:20;;;;;;;24.87;17.50;;;10.40;99.90;;;;;;5045847;28;20186;-64
2023/10/25 05:04:47;;;;;;;24.00;17.33;;;10.40;99.90;;;;;;5045890;28;20186;-63
2023/10/25 05:07:13;;;;;;;26.33;17.37;;;10.40;99.90;;;;;;5044562;28;20171;-62
2023/10/25 05:09:39;;;;;;;28.43;18.60;;;10.40;99.90;;;;;;5046418;28;20516;-60
2023/10/25 05:12:07;;;;;;;26.40;20.43;;;10.30;99.90;;;;;;5046261;28;20437;-61
2023/10/25 05:14:33;;;;;;;28.10;19.50;;;10.30;99.90;;;;;;5046033;28;20635;-62
2023/10/25 05:17:00;;;;;;;26.63;19.30;;;10.20;99.90;;;;;;5046540;28;20465;-64
2023/10/25 05:19:26;;;;;;;26.30;19.37;;;10.20;99.90;;;;;;5044517;28;20424;-63
2023/10/25 05:21:54;;;;;;;32.27;18.37;;;10.20;99.90;;;;;;5043420;28;20466;-64
2023/10/25 05:24:20;;;;;;;32.23;20.93;;;10.20;99.90;;;;;;5047872;28;20457;-64
2023/10/25 05:26:46;;;;;;;30.50;20.40;;;10.10;99.90;;;;;;5046004;28;20495;-64
2023/10/25 05:29:12;;;;;;;27.97;20.30;;;10.10;99.90;;;;;;5048226;28;20562;-64
2023/10/25 05:31:42;;;;;;;29.33;19.40;;;10.00;99.90;;;;;;5044931;28;20789;-62
2023/10/25 05:34:09;;;;;;;28.53;19.50;;;10.00;99.90;;;;;;5046635;28;20972;-63
2023/10/25 05:36:36;;;;;;;27.63;20.70;;;10.00;99.90;;;;;;5042404;28;20448;-62
2023/10/25 05:39:02;;;;;;;35.27;20.70;;;10.00;99.90;;;;;;5021429;28;20422;-62
2023/10/25 05:41:35;;;;;;;27.30;19.70;;;9.90;99.90;;;;;;5040347;28;20417;-63
2023/10/25 05:44:02;;;;;;;30.00;21.00;;;9.90;99.90;;;;;;5041678;28;20423;-63
2023/10/25 05:46:27;;;;;;;29.40;20.27;;;9.90;99.90;;;;;;5038983;28;20457;-64
2023/10/25 05:48:54;;;;;;;32.80;19.57;;;9.90;99.90;;;;;;5042166;28;20409;-60
2023/10/25 05:51:20;;;;;;;29.80;19.73;;;9.90;99.90;;;;;;5040858;28;20228;-62
2023/10/25 05:53:47;;;;;;;26.43;19.30;;;9.90;99.90;;;;;;5043135;28;20941;-63
2023/10/25 05:56:13;;;;;;;27.47;19.97;;;9.80;99.90;;;;;;5044466;28;20555;-63
2023/10/25 05:58:39;;;;;;;25.40;19.83;;;9.80;99.90;;;;;;5038774;28;20438;-63
2023/10/25 06:01:08;;;;;;;31.50;20.73;;;9.90;99.90;;;;;;5043078;28;20494;-63
2023/10/25 06:03:35;;;;;;;34.37;21.97;;;9.90;99.90;;;;;;5043561;28;20275;-61
2023/10/25 06:06:01;;;;;;;28.20;21.23;;;9.90;99.90;;;;;;5046817;28;20468;-64
2023/10/25 06:08:27;;;;;;;28.33;20.00;;;9.90;99.90;;;;;;5043434;28;20501;-62
2023/10/25 06:10:59;;;;;;;28.53;20.50;;;9.90;99.90;;;;;;5027802;28;20419;-63
2023/10/25 06:13:25;;;;;;;31.10;20.77;;;9.90;99.90;;;;;;5007090;28;20437;-66
2023/10/25 06:15:51;;;;;;;28.33;19.40;;;9.90;99.90;;;;;;5039594;28;20933;-65
2023/10/25 06:18:16;;;;;;;30.40;20.20;;;9.90;99.90;;;;;;5045039;28;20186;-62
2023/10/25 06:20:42;;;;;;;26.50;20.30;;;9.90;99.90;;;;;;5032420;28;20191;-63
2023/10/25 06:23:08;;;;;;;32.77;24.47;;;10.00;99.90;;;;;;5045624;28;20172;-61
2023/10/25 06:25:33;;;;;;;36.20;22.43;;;10.10;99.90;;;;;;5032039;28;20604;-62
2023/10/25 06:27:59;;;;;;;36.30;24.80;;;10.20;99.90;;;;;;5052579;28;20547;-60
2023/10/25 06:30:28;;;;;;;30.10;21.30;;;10.30;99.90;;;;;;5052415;28;20659;-64
2023/10/25 06:32:56;;;;;;;27.33;19.33;;;10.30;99.90;;;;;;5048282;28;20230;-63
2023/10/25 06:35:22;;;;;;;32.00;22.10;;;10.20;99.90;;;;;;5051625;28;20440;-64
2023/10/25 06:37:48;;;;;;;26.93;21.63;;;10.20;99.90;;;;;;5041918;28;20499;-65
2023/10/25 06:40:14;;;;;;;32.80;22.13;;;10.30;99.90;;;;;;5050836;28;20258;-65
2023/10/25 06:42:46;;;;;;;32.93;20.93;;;10.40;99.90;;;;;;5036823;28;20449;-63
2023/10/25 06:45:14;;;;;;;32.57;22.60;;;10.40;99.90;;;;;;5044197;28;20552;-63
2023/10/25 06:47:41;;;;;;;34.40;22.43;;;10.50;99.90;;;;;;5058735;28;20529;-64
2023/10/25 06:50:09;;;;;;;33.27;22.80;;;10.50;99.90;;;;;;5072062;28;20409;-62
2023/10/25 06:52:38;;;;;;;35.80;23.50;;;10.60;99.90;;;;;;5065894;28;20447;-60
2023/10/25 06:55:07;;;;;;;31.37;23.33;;;10.60;99.90;;;;;;5062072;28;20462;-62
2023/10/25 06:57:33;;;;;;;35.00;22.90;;;10.70;99.90;;;;;;4998051;28;20793;-63
2023/10/25 06:59:59;;;;;;;35.07;23.20;;;10.80;99.90;;;;;;5048922;28;20491;-63
2023/10/25 07:02:31;;;;;;;28.43;20.90;;;10.80;99.90;;;;;;5053477;28;20410;-63
2023/10/25 07:05:05;;;;;;;32.27;22.83;;;10.80;99.90;;;;;;5060574;28;20453;-63
2023/10/25 07:07:33;;;;;;;28.53;22.10;;;10.70;99.90;;;;;;5046900;28;20869;-63
2023/10/25 07:09:59;;;;;;;28.03;20.53;;;10.70;99.90;;;;;;5049740;28;20424;-63
2023/10/25 07:12:24;;;;;;;29.87;21.47;;;10.80;99.90;;;;;;5049837;28;20460;-63
2023/10/25 07:14:50;;;;;;;32.90;22.83;;;10.90;99.90;;;;;;5046738;28;20417;-63
2023/10/25 07:17:16;;;;;;;33.13;21.87;;;10.80;99.90;;;;;;5045099;28;20186;-64
2023/10/25 07:19:43;;;;;;;33.00;23.00;;;10.80;99.90;;;;;;5043894;28;20175;-63
2023/10/25 07:22:10;;;;;;;30.10;21.50;;;10.80;99.90;;;;;;5043510;28;20192;-62
2023/10/25 07:24:35;;;;;;;28.13;20.67;;;10.90;99.90;;;;;;5043291;28;20432;-62
2023/10/25 07:27:01;;;;;;;30.87;21.43;;;10.90;99.90;;;;;;5042988;28;20973;-62
2023/10/25 07:29:26;;;;;;;31.27;22.50;;;11.00;99.90;;;;;;5043680;28;20637;-64
2023/10/25 07:31:52;;;;;;;33.90;22.70;;;11.00;99.90;;;;;;5024286;28;20273;-62
2023/10/25 07:34:18;;;;;;;37.40;22.00;;;10.90;99.90;;;;;;5044646;28;20998;-65
2023/10/25 07:36:43;;;;;;;28.70;20.50;;;11.10;99.90;;;;;;5043498;28;20199;-63
2023/10/25 07:39:09;;;;;;;35.77;21.87;;;10.90;99.90;;;;;;5043140;28;20206;-65
2023/10/25 07:41:34;;;;;;;29.40;19.93;;;11.10;99.90;;;;;;5042969;28;20232;-64
2023/10/25 07:44:01;;;;;;;31.80;21.33;;;11.30;99.90;;;;;;5039119;28;20175;-65
2023/10/25 07:46:26;;;;;;;27.33;19.30;;;11.50;99.90;;;;;;5044080;28;20203;-65
2023/10/25 07:48:52;;;;;;;25.87;17.90;;;11.10;99.90;;;;;;5043373;28;20520;-65
2023/10/25 07:51:18;;;;;;;26.87;18.43;;;11.20;99.90;;;;;;5060030;28;20617;-66
2023/10/25 07:53:43;;;;;;;30.17;20.40;;;11.50;99.90;;;;;;5060011;28;20184;-66
2023/10/25 07:56:09;;;;;;;20.97;16.70;;;12.00;99.90;;;;;;5047263;28;20246;-64
2023/10/25 07:58:34;;;;;;;20.70;17.97;;;12.50;99.90;;;;;;5047748;28;20203;-66
2023/10/25 08:01:01;;;;;;;24.77;18.33;;;12.70;99.90;;;;;;5042693;28;20178;-67
2023/10/25 08:03:28;;;;;;;18.57;16.00;;;12.80;99.90;;;;;;5042657;28;20175;-63
2023/10/25 08:05:55;;;;;;;21.07;17.03;;;12.60;99.90;;;;;;5037275;28;20461;-60
2023/10/25 08:08:21;;;;;;;18.57;14.17;;;12.70;99.90;;;;;;5042606;28;20426;-63
2023/10/25 08:10:47;;;;;;;19.60;15.73;;;13.20;99.90;;;;;;5040386;28;20875;-66
2023/10/25 08:13:13;;;;;;;17.93;15.13;;;13.60;99.90;;;;;;5042809;28;20506;-61
2023/10/25 08:15:39;;;;;;;19.23;14.10;;;13.30;99.90;;;;;;5043947;28;20648;-62
2023/10/25 08:18:05;;;;;;;15.90;14.03;;;13.30;99.90;;;;;;5042691;28;20374;-67
2023/10/25 08:20:36;;;;;;;17.87;15.63;;;13.50;99.90;;;;;;5042461;28;20423;-64
2023/10/25 08:23:01;;;;;;;17.30;14.70;;;13.40;99.90;;;;;;5041130;28;20181;-63
2023/10/25 08:25:27;;;;;;;17.20;14.03;;;12.90;99.90;;;;;;5024125;28;21026;-63
2023/10/25 08:27:52;;;;;;;17.03;13.80;;;12.80;99.90;;;;;;5041903;28;20199;-61
2023/10/25 08:30:20;;;;;;;19.00;14.63;;;12.70;99.90;;;;;;5043309;28;20178;-63
2023/10/25 08:32:46;;;;;;;18.33;14.30;;;12.50;99.90;;;;;;5039182;28;20243;-63
2023/10/25 08:35:12;;;;;;;13.20;11.87;;;12.80;99.90;;;;;;5042469;28;20853;-63
2023/10/25 08:37:38;;;;;;;15.60;13.43;;;13.20;99.90;;;;;;5024356;28;20432;-62
2023/10/25 08:40:08;;;;;;;13.80;12.33;;;13.10;99.90;;;;;;5041491;28;20176;-63
2023/10/25 08:42:34;;;;;;;14.77;13.30;;;13.40;99.90;;;;;;5040082;28;20420;-63
2023/10/25 08:45:00;;;;;;;15.07;13.20;;;12.90;99.90;;;;;;5042593;28;20546;-63
2023/10/25 08:47:25;;;;;;;16.00;14.30;;;13.00;99.90;;;;;;5069409;28;20614;-63
2023/10/25 08:49:51;;;;;;;16.77;13.90;;;13.10;99.90;;;;;;5060470;28;20645;-62
2023/10/25 08:52:24;;;;;;;16.40;14.47;;;12.90;99.90;;;;;;5030891;28;20184;-63
2023/10/25 08:54:50;;;;;;;15.10;12.67;;;13.10;99.90;;;;;;5031580;28;20233;-62
2023/10/25 08:57:17;;;;;;;12.83;11.50;;;13.10;99.90;;;;;;5052553;28;20871;-65
2023/10/25 08:59:45;;;;;;;14.10;12.67;;;13.40;99.90;;;;;;5054126;28;20476;-65
2023/10/25 09:02:12;;;;;;;15.73;14.03;;;13.80;99.90;;;;;;5057808;28;20469;-66
2023/10/25 09:04:56;;;;;;;14.90;13.30;;;13.60;99.90;;;;;;5054481;28;20401;-64
2023/10/25 09:07:29;;;;;;;15.07;13.50;;;13.60;99.90;;;;;;5052527;28;20418;-65
2023/10/25 09:09:54;;;;;;;18.50;14.07;;;13.30;99.90;;;;;;5053891;28;20410;-63
2023/10/25 09:12:21;;;;;;;15.40;12.63;;;13.40;99.90;;;;;;5053377;28;20675;-61
2023/10/25 09:14:48;;;;;;;18.13;13.17;;;13.50;99.90;;;;;;5052644;28;20169;-63
2023/10/25 09:17:13;;;;;;;16.30;13.07;;;13.40;99.90;;;;;;5073548;28;20433;-63
2023/10/25 09:19:49;;;;;;;15.03;12.97;;;13.20;99.90;;;;;;5053446;28;20445;-63
2023/10/25 09:22:25;;;;;;;13.47;12.13;;;13.30;99.90;;;;;;5053229;28;20512;-63
2023/10/25 09:24:54;;;;;;;16.13;13.30;;;13.20;99.90;;;;;;5053397;28;20407;-63
2023/10/25 09:27:21;;;;;;;17.10;14.23;;;13.10;99.90;;;;;;5053589;28;21048;-61
2023/10/25 09:29:47;;;;;;;14.83;13.33;;;12.90;99.90;;;;;;5052009;28;20754;-62
2023/10/25 09:32:13;;;;;;;20.97;13.83;;;13.00;99.90;;;;;;5045750;28;20509;-61
2023/10/25 09:34:39;;;;;;;15.97;12.53;;;13.10;99.90;;;;;;5062063;28;20165;-61
2023/10/25 09:37:06;;;;;;;19.60;14.67;;;13.40;99.90;;;;;;5053116;28;20420;-61
2023/10/25 09:39:35;;;;;;;15.93;12.37;;;13.30;99.90;;;;;;5053262;28;20272;-63
2023/10/25 09:42:03;;;;;;;14.97;13.50;;;13.30;99.90;;;;;;5053536;28;20823;-62
2023/10/25 09:44:34;;;;;;;20.97;14.10;;;13.20;99.90;;;;;;5050633;28;20429;-64
2023/10/25 09:47:03;;;;;;;14.00;12.50;;;13.20;99.90;;;;;;5049726;28;20968;-63
2023/10/25 09:49:30;;;;;;;15.00;13.23;;;13.40;99.90;;;;;;5051050;28;20762;-61
2023/10/25 09:52:15;;;;;;;17.07;14.50;;;13.50;99.90;;;;;;5046836;28;20535;-64
2023/10/25 09:54:48;;;;;;;14.13;11.93;;;13.10;99.90;;;;;;5035794;28;20491;-63
2023/10/25 09:57:14;;;;;;;13.70;12.30;;;13.50;99.90;;;;;;5049376;28;20423;-62
2023/10/25 09:59:42;;;;;;;16.33;13.30;;;13.60;99.90;;;;;;5063123;28;20429;-62
2023/10/25 10:02:10;;;;;;;17.37;14.30;;;14.00;99.90;;;;;;5051009;28;20553;-61
2023/10/25 10:04:59;;;;;;;16.67;13.43;;;13.90;99.90;;;;;;5051443;28;20427;-63
2023/10/25 10:08:01;;;;;;;17.00;12.03;;;14.20;99.90;;;;;;5045554;28;20959;-62
2023/10/25 10:10:57;;;;;;;18.67;14.40;;;14.20;99.90;;;;;;5071875;28;20421;-62
2023/10/25 10:13:23;;;;;;;19.90;15.13;;;13.70;99.90;;;;;;5041389;28;20426;-62
2023/10/25 10:16:04;;;;;;;16.30;13.90;;;13.60;99.90;;;;;;5050062;28;20853;-62
2023/10/25 10:18:33;;;;;;;17.53;14.10;;;13.60;99.90;;;;;;5051903;28;20442;-61
2023/10/25 10:21:04;;;;;;;14.60;13.07;;;13.50;99.90;;;;;;5058587;28;20988;-62
2023/10/25 10:23:34;;;;;;;15.03;13.43;;;13.70;99.90;;;;;;5061556;28;20418;-62
2023/10/25 10:26:01;;;;;;;18.40;13.93;;;13.60;99.90;;;;;;5059818;28;20453;-66
2023/10/25 10:28:37;;;;;;;15.70;12.93;;;13.70;99.90;;;;;;5044967;28;20423;-66
2023/10/25 10:31:02;;;;;;;14.80;13.20;;;13.70;99.90;;;;;;5036634;28;20431;-64
2023/10/25 10:33:28;;;;;;;23.17;13.77;;;13.70;99.90;;;;;;5045937;28;20427;-64
2023/10/25 10:35:59;;;;;;;15.13;13.07;;;14.10;99.90;;;;;;5045328;28;20207;-66
2023/10/25 10:38:25;;;;;;;15.60;11.57;;;14.10;99.90;;;;;;5044467;28;20675;-66
2023/10/25 10:40:53;;;;;;;13.80;12.50;;;13.90;99.90;;;;;;5040752;28;20527;-65
2023/10/25 10:43:20;;;;;;;12.47;11.17;;;13.90;99.90;;;;;;5053253;28;20182;-61
2023/10/25 10:45:52;;;;;;;13.30;12.10;;;14.00;99.90;;;;;;5053442;28;20494;-61
2023/10/25 10:48:22;;;;;;;11.20;10.00;;;14.00;99.90;;;;;;5051239;28;20427;-63
2023/10/25 10:50:49;;;;;;;10.80;9.67;;;13.90;99.90;;;;;;5051804;28;20417;-62
2023/10/25 10:53:14;;;;;;;10.67;9.67;;;13.70;99.90;;;;;;5051082;28;20433;-63
2023/10/25 10:55:40;;;;;;;10.03;9.07;;;14.00;99.90;;;;;;5050391;28;20995;-63
2023/10/25 10:58:07;;;;;;;10.60;9.50;;;14.20;99.90;;;;;;5050616;28;20630;-64
2023/10/25 11:00:33;;;;;;;12.27;9.37;;;14.50;99.90;;;;;;5051530;28;20840;-64
2023/10/25 11:03:01;;;;;;;8.93;8.10;;;14.30;99.90;;;;;;5051037;28;20544;-63
2023/10/25 11:05:27;;;;;;;7.70;7.00;;;14.40;99.90;;;;;;5050808;28;20217;-64
2023/10/25 11:07:53;;;;;;;8.50;6.97;;;14.40;99.90;;;;;;5056753;28;20428;-64
2023/10/25 11:10:19;;;;;;;8.83;6.97;;;14.40;99.90;;;;;;5061656;28;20184;-65
2023/10/25 11:12:45;;;;;;;7.37;6.67;;;14.40;99.90;;;;;;5050782;28;20455;-66
2023/10/25 11:15:12;;;;;;;7.97;7.17;;;14.30;99.90;;;;;;5050172;28;20865;-61
2023/10/25 11:17:38;;;;;;;7.33;6.73;;;14.20;99.90;;;;;;5051015;28;20166;-63
2023/10/25 11:20:05;;;;;;;11.00;6.47;;;13.90;99.90;;;;;;5050664;28;20453;-64
2023/10/25 11:22:31;;;;;;;12.80;7.40;;;14.30;99.90;;;;;;5050622;28;20478;-63
2023/10/25 11:24:57;;;;;;;8.73;6.67;;;14.00;99.90;;;;;;5049850;28;20452;-63
2023/10/25 11:27:30;;;;;;;11.13;7.53;;;14.10;99.90;;;;;;5049374;28;20531;-63
2023/10/25 11:29:56;;;;;;;6.97;6.23;;;14.00;99.90;;;;;;5044859;28;20794;-64
2023/10/25 11:32:21;;;;;;;7.30;6.10;;;14.00;99.90;;;;;;5043850;28;20434;-67
2023/10/25 11:34:52;;;;;;;7.90;5.27;;;14.40;99.90;;;;;;5051315;28;21004;-63
2023/10/25 11:37:19;;;;;;;8.97;7.30;;;14.40;99.90;;;;;;5049574;28;20172;-62
2023/10/25 11:39:59;;;;;;;6.13;5.60;;;14.50;99.90;;;;;;5050665;28;20421;-60
2023/10/25 11:42:27;;;;;;;7.63;6.93;;;14.70;99.90;;;;;;5050157;28;20423;-59
2023/10/25 11:44:54;;;;;;;8.13;6.37;;;14.60;99.90;;;;;;5051231;28;20557;-63
2023/10/25 11:47:21;;;;;;;9.00;7.17;;;14.50;99.90;;;;;;5049305;28;20470;-63
2023/10/25 11:49:57;;;;;;;8.40;7.60;;;14.60;99.90;;;;;;5050533;28;20424;-60
2023/10/25 11:52:32;;;;;;;8.10;7.30;;;14.60;99.90;;;;;;5044725;28;20426;-61
2023/10/25 11:54:59;;;;;;;8.90;6.00;;;14.50;99.90;;;;;;5049898;28;20637;-65
2023/10/25 11:57:27;;;;;;;6.40;5.80;;;13.90;99.90;;;;;;5049464;28;21308;-63
2023/10/25 11:59:53;;;;;;;11.73;5.73;;;13.80;99.90;;;;;;5048264;28;20517;-63
2023/10/25 12:02:21;;;;;;;9.20;6.33;;;13.50;99.90;;;;;;5049924;28;20518;-63
2023/10/25 12:04:51;;;;;;;9.60;6.33;;;13.70;99.90;;;;;;5049582;28;20916;-63
2023/10/25 12:07:17;;;;;;;10.37;5.90;;;13.90;99.90;;;;;;5049717;28;20562;-63
2023/10/25 12:09:45;;;;;;;9.23;6.50;;;14.00;99.90;;;;;;5043380;28;20451;-63
2023/10/25 12:12:11;;;;;;;8.70;5.17;;;14.00;99.90;;;;;;5050040;28;20413;-63
2023/10/25 12:14:37;;;;;;;7.80;5.80;;;14.10;99.90;;;;;;5049687;28;20873;-65
2023/10/25 12:17:03;;;;;;;8.73;5.00;;;14.30;99.90;;;;;;5055720;28;20432;-60
2023/10/25 12:19:29;;;;;;;6.00;5.40;;;14.30;99.90;;;;;;5049339;28;20426;-63
2023/10/25 12:21:57;;;;;;;5.07;4.57;;;14.50;99.90;;;;;;5049391;28;20904;-65
2023/10/25 12:24:23;;;;;;;6.17;5.37;;;14.50;99.90;;;;;;5050002;28;20191;-64
2023/10/25 12:26:49;;;;;;;6.73;5.60;;;14.40;99.90;;;;;;5049752;28;20901;-63
2023/10/25 12:29:14;;;;;;;6.93;5.40;;;14.40;99.90;;;;;;5050106;28;20449;-58
2023/10/25 12:31:40;;;;;;;6.30;5.27;;;14.50;99.90;;;;;;5049769;28;20583;-60